aviador You're here:

HSSS Decoded Metar

KHARTOUM in SUDAN
Report Time2017-12-11 22:30:00
UTC Time2017-12-11 22:56:43
Flight Rules vfr VFR
Wind010° at 09 kt
W.Decomp.*RWY 36: 8.9 kt HW 1.3 kt RCW
W.Rank010° ranks 12
Current wind is above 010° avg. (8.4)
Visibility9999 m
Phenomena:N/A
Clouds:N/A
Expected CloudBase > 8,000 ft AGL from Temp-Dew spread
CeilingNone
Temp27°C (ISA +14)
Dew Point07°C (28% RH)
Heat Index26.3°C
AAT23.0°C
QNH1013 hPa
Density Alt3,051 ft
Elevation1,247 ft
Report Wrong Elevation
Raw Report
HSSS 112230Z 01009KT CAVOK 27/07 Q1013 NOSIG=

Extra information for HSSS:More info

Metar Taf Metar & Taf Last 4 Metars F.Rules Stats Wind Profile Meteogram Temp Stats Airport Information Weather charts Add Link Nearby VenuesMetar ALERT Operation Metar Decoded Social comments